sensor_id;sensor_type;location;lat;lon;timestamp;temperature;humidity
20839;DHT22;10580;51.092;6.828;2023-02-20T00:00:37;5.20;99.90
20839;DHT22;10580;51.092;6.828;2023-02-20T00:03:04;5.20;99.90
20839;DHT22;10580;51.092;6.828;2023-02-20T00:05:30;5.20;99.90
20839;DHT22;10580;51.092;6.828;2023-02-20T00:07:55;5.20;99.90
20839;DHT22;10580;51.092;6.828;2023-02-20T00:10:21;5.20;99.90
20839;DHT22;10580;51.092;6.828;2023-02-20T00:12:48;5.20;99.90
20839;DHT22;10580;51.092;6.828;2023-02-20T00:15:16;5.20;99.90
20839;DHT22;10580;51.092;6.828;2023-02-20T00:17:44;5.20;99.90
20839;DHT22;10580;51.092;6.828;2023-02-20T00:20:18;5.20;99.90
20839;DHT22;10580;51.092;6.828;2023-02-20T00:22:47;5.20;99.90
20839;DHT22;10580;51.092;6.828;2023-02-20T00:25:15;5.20;99.90
20839;DHT22;10580;51.092;6.828;2023-02-20T00:27:41;5.30;99.90
20839;DHT22;10580;51.092;6.828;2023-02-20T00:30:14;5.30;99.90
20839;DHT22;10580;51.092;6.828;2023-02-20T00:32:40;5.30;99.90
20839;DHT22;10580;51.092;6.828;2023-02-20T00:35:10;5.30;99.90
20839;DHT22;10580;51.092;6.828;2023-02-20T00:37:36;5.30;99.90
20839;DHT22;10580;51.092;6.828;2023-02-20T00:40:03;5.20;99.90
20839;DHT22;10580;51.092;6.828;2023-02-20T00:42:29;5.30;99.90
20839;DHT22;10580;51.092;6.828;2023-02-20T00:44:57;5.30;99.90
20839;DHT22;10580;51.092;6.828;2023-02-20T00:47:23;5.30;99.90
20839;DHT22;10580;51.092;6.828;2023-02-20T00:49:48;5.30;99.90
20839;DHT22;10580;51.092;6.828;2023-02-20T00:52:14;5.40;99.90
20839;DHT22;10580;51.092;6.828;2023-02-20T00:54:39;5.40;99.90
20839;DHT22;10580;51.092;6.828;2023-02-20T00:57:08;5.40;99.90
20839;DHT22;10580;51.092;6.828;2023-02-20T00:59:33;5.40;99.90
20839;DHT22;10580;51.092;6.828;2023-02-20T01:01:59;5.50;99.90
20839;DHT22;10580;51.092;6.828;2023-02-20T01:04:24;5.50;99.90
20839;DHT22;10580;51.092;6.828;2023-02-20T01:06:50;5.60;99.90
20839;DHT22;10580;51.092;6.828;2023-02-20T01:09:16;5.70;99.90
20839;DHT22;10580;51.092;6.828;2023-02-20T01:11:43;5.70;99.90
20839;DHT22;10580;51.092;6.828;2023-02-20T01:14:09;5.70;99.90
20839;DHT22;10580;51.092;6.828;2023-02-20T01:16:34;5.70;99.90
20839;DHT22;10580;51.092;6.828;2023-02-20T01:19:02;5.70;99.90
20839;DHT22;10580;51.092;6.828;2023-02-20T01:21:28;5.80;99.90
20839;DHT22;10580;51.092;6.828;2023-02-20T01:23:54;5.80;99.90
20839;DHT22;10580;51.092;6.828;2023-02-20T01:26:19;5.80;99.90
20839;DHT22;10580;51.092;6.828;2023-02-20T01:28:46;5.90;99.90
20839;DHT22;10580;51.092;6.828;2023-02-20T01:31:14;5.90;99.90
20839;DHT22;10580;51.092;6.828;2023-02-20T01:33:42;5.90;99.90
20839;DHT22;10580;51.092;6.828;2023-02-20T01:36:09;5.90;99.90
20839;DHT22;10580;51.092;6.828;2023-02-20T01:38:36;6.00;99.90
20839;DHT22;10580;51.092;6.828;2023-02-20T01:41:01;6.00;99.90
20839;DHT22;10580;51.092;6.828;2023-02-20T01:43:27;6.00;99.90
20839;DHT22;10580;51.092;6.828;2023-02-20T01:45:53;6.00;99.90
20839;DHT22;10580;51.092;6.828;2023-02-20T01:48:24;6.00;99.90
20839;DHT22;10580;51.092;6.828;2023-02-20T01:50:56;6.00;99.90
20839;DHT22;10580;51.092;6.828;2023-02-20T01:53:24;6.00;99.90
20839;DHT22;10580;51.092;6.828;2023-02-20T01:55:54;6.00;99.90
20839;DHT22;10580;51.092;6.828;2023-02-20T01:58:27;6.00;99.90
20839;DHT22;10580;51.092;6.828;2023-02-20T02:00:54;6.10;99.90
20839;DHT22;10580;51.092;6.828;2023-02-20T02:03:26;6.10;99.90
20839;DHT22;10580;51.092;6.828;2023-02-20T02:05:59;6.10;99.90
20839;DHT22;10580;51.092;6.828;2023-02-20T02:08:26;6.10;99.90
20839;DHT22;10580;51.092;6.828;2023-02-20T02:13:30;6.10;99.90
20839;DHT22;10580;51.092;6.828;2023-02-20T02:16:29;6.10;99.90
20839;DHT22;10580;51.092;6.828;2023-02-20T02:19:18;6.10;99.90
20839;DHT22;10580;51.092;6.828;2023-02-20T02:27:51;6.10;99.90
20839;DHT22;10580;51.092;6.828;2023-02-20T02:33:20;6.10;99.90
20839;DHT22;10580;51.092;6.828;2023-02-20T02:36:24;6.00;99.90
20839;DHT22;10580;51.092;6.828;2023-02-20T02:44:34;5.90;99.90
20839;DHT22;10580;51.092;6.828;2023-02-20T02:47:10;5.80;99.90
20839;DHT22;10580;51.092;6.828;2023-02-20T02:52:23;5.80;99.90
20839;DHT22;10580;51.092;6.828;2023-02-20T02:55:08;5.80;99.90
20839;DHT22;10580;51.092;6.828;2023-02-20T02:57:34;5.80;99.90
20839;DHT22;10580;51.092;6.828;2023-02-20T03:00:04;5.80;99.90
20839;DHT22;10580;51.092;6.828;2023-02-20T03:02:39;5.80;99.90
20839;DHT22;10580;51.092;6.828;2023-02-20T03:05:09;5.80;99.90
20839;DHT22;10580;51.092;6.828;2023-02-20T03:07:37;5.80;99.90
20839;DHT22;10580;51.092;6.828;2023-02-20T03:10:09;5.80;99.90
20839;DHT22;10580;51.092;6.828;2023-02-20T03:12:38;5.80;99.90
20839;DHT22;10580;51.092;6.828;2023-02-20T03:20:53;5.70;99.90
20839;DHT22;10580;51.092;6.828;2023-02-20T03:23:26;5.70;99.90
20839;DHT22;10580;51.092;6.828;2023-02-20T03:26:17;5.60;99.90
20839;DHT22;10580;51.092;6.828;2023-02-20T03:28:55;5.50;99.90
20839;DHT22;10580;51.092;6.828;2023-02-20T03:31:33;5.50;99.90
20839;DHT22;10580;51.092;6.828;2023-02-20T03:34:08;5.50;99.90
20839;DHT22;10580;51.092;6.828;2023-02-20T03:37:00;5.50;99.90
20839;DHT22;10580;51.092;6.828;2023-02-20T03:39:48;5.40;99.90
20839;DHT22;10580;51.092;6.828;2023-02-20T03:42:36;5.40;99.90
20839;DHT22;10580;51.092;6.828;2023-02-20T03:45:23;5.40;99.90
20839;DHT22;10580;51.092;6.828;2023-02-20T03:47:53;5.40;99.90
20839;DHT22;10580;51.092;6.828;2023-02-20T03:50:21;5.40;99.90
20839;DHT22;10580;51.092;6.828;2023-02-20T03:52:47;5.40;99.90
20839;DHT22;10580;51.092;6.828;2023-02-20T03:55:13;5.50;99.90
20839;DHT22;10580;51.092;6.828;2023-02-20T03:57:42;5.50;99.90
20839;DHT22;10580;51.092;6.828;2023-02-20T04:00:19;5.50;99.90
20839;DHT22;10580;51.092;6.828;2023-02-20T04:02:47;5.50;99.90
20839;DHT22;10580;51.092;6.828;2023-02-20T04:05:26;5.40;99.90
20839;DHT22;10580;51.092;6.828;2023-02-20T04:07:55;5.50;99.90
20839;DHT22;10580;51.092;6.828;2023-02-20T04:10:25;5.40;99.90
20839;DHT22;10580;51.092;6.828;2023-02-20T04:12:55;5.40;99.90
20839;DHT22;10580;51.092;6.828;2023-02-20T04:15:23;5.40;99.90
20839;DHT22;10580;51.092;6.828;2023-02-20T04:17:57;5.40;99.90
20839;DHT22;10580;51.092;6.828;2023-02-20T04:20:24;5.30;99.90
20839;DHT22;10580;51.092;6.828;2023-02-20T04:22:53;5.30;99.90
20839;DHT22;10580;51.092;6.828;2023-02-20T04:28:02;5.20;99.90
20839;DHT22;10580;51.092;6.828;2023-02-20T04:30:28;5.10;99.90
20839;DHT22;10580;51.092;6.828;2023-02-20T04:33:01;5.10;99.90
20839;DHT22;10580;51.092;6.828;2023-02-20T04:35:27;5.10;99.90
20839;DHT22;10580;51.092;6.828;2023-02-20T04:37:53;5.10;99.90
20839;DHT22;10580;51.092;6.828;2023-02-20T04:40:22;5.00;99.90
20839;DHT22;10580;51.092;6.828;2023-02-20T04:42:48;5.00;99.90
20839;DHT22;10580;51.092;6.828;2023-02-20T04:45:14;5.00;99.90
20839;DHT22;10580;51.092;6.828;2023-02-20T04:47:43;5.00;99.90
20839;DHT22;10580;51.092;6.828;2023-02-20T04:50:12;5.00;99.90
20839;DHT22;10580;51.092;6.828;2023-02-20T04:52:40;4.90;99.90
20839;DHT22;10580;51.092;6.828;2023-02-20T04:55:06;5.00;99.90
20839;DHT22;10580;51.092;6.828;2023-02-20T04:57:32;5.00;99.90
20839;DHT22;10580;51.092;6.828;2023-02-20T04:59:57;5.00;99.90
20839;DHT22;10580;51.092;6.828;2023-02-20T05:02:23;5.00;99.90
20839;DHT22;10580;51.092;6.828;2023-02-20T05:04:49;5.00;99.90
20839;DHT22;10580;51.092;6.828;2023-02-20T05:07:16;5.10;99.90
20839;DHT22;10580;51.092;6.828;2023-02-20T05:09:42;5.10;99.90
20839;DHT22;10580;51.092;6.828;2023-02-20T05:12:08;5.10;99.90
20839;DHT22;10580;51.092;6.828;2023-02-20T05:14:34;5.20;99.90
20839;DHT22;10580;51.092;6.828;2023-02-20T05:17:00;5.20;99.90
20839;DHT22;10580;51.092;6.828;2023-02-20T05:19:28;5.20;99.90
20839;DHT22;10580;51.092;6.828;2023-02-20T05:21:56;5.30;99.90
20839;DHT22;10580;51.092;6.828;2023-02-20T05:24:42;5.30;99.90
20839;DHT22;10580;51.092;6.828;2023-02-20T05:27:12;5.40;99.90
20839;DHT22;10580;51.092;6.828;2023-02-20T05:29:44;5.30;99.90
20839;DHT22;10580;51.092;6.828;2023-02-20T05:32:10;5.30;99.90
20839;DHT22;10580;51.092;6.828;2023-02-20T05:34:36;5.30;99.90
20839;DHT22;10580;51.092;6.828;2023-02-20T05:37:01;5.30;99.90
20839;DHT22;10580;51.092;6.828;2023-02-20T05:39:27;5.30;99.90
20839;DHT22;10580;51.092;6.828;2023-02-20T05:41:52;5.30;99.90
20839;DHT22;10580;51.092;6.828;2023-02-20T05:44:18;5.30;99.90
20839;DHT22;10580;51.092;6.828;2023-02-20T05:46:43;5.30;99.90
20839;DHT22;10580;51.092;6.828;2023-02-20T05:49:09;5.30;99.90
20839;DHT22;10580;51.092;6.828;2023-02-20T05:51:35;5.30;99.90
20839;DHT22;10580;51.092;6.828;2023-02-20T05:54:02;5.40;99.90
20839;DHT22;10580;51.092;6.828;2023-02-20T05:56:28;5.40;99.90
20839;DHT22;10580;51.092;6.828;2023-02-20T05:58:54;5.40;99.90
20839;DHT22;10580;51.092;6.828;2023-02-20T06:01:23;5.30;99.90
20839;DHT22;10580;51.092;6.828;2023-02-20T06:03:49;5.40;99.90
20839;DHT22;10580;51.092;6.828;2023-02-20T06:06:16;5.30;99.90
20839;DHT22;10580;51.092;6.828;2023-02-20T06:08:42;5.30;99.90
20839;DHT22;10580;51.092;6.828;2023-02-20T06:11:10;5.30;99.90
20839;DHT22;10580;51.092;6.828;2023-02-20T06:13:38;5.20;99.90
20839;DHT22;10580;51.092;6.828;2023-02-20T06:16:04;5.20;99.90
20839;DHT22;10580;51.092;6.828;2023-02-20T06:18:29;5.20;99.90
20839;DHT22;10580;51.092;6.828;2023-02-20T06:20:55;5.20;99.90
20839;DHT22;10580;51.092;6.828;2023-02-20T06:23:21;5.20;99.90
20839;DHT22;10580;51.092;6.828;2023-02-20T06:25:46;5.20;99.90
20839;DHT22;10580;51.092;6.828;2023-02-20T06:28:12;5.10;99.90
20839;DHT22;10580;51.092;6.828;2023-02-20T06:30:38;5.10;99.90
20839;DHT22;10580;51.092;6.828;2023-02-20T06:33:03;5.00;99.90
20839;DHT22;10580;51.092;6.828;2023-02-20T06:35:29;5.00;99.90
20839;DHT22;10580;51.092;6.828;2023-02-20T06:37:54;5.00;99.90
20839;DHT22;10580;51.092;6.828;2023-02-20T06:40:20;4.90;99.90
20839;DHT22;10580;51.092;6.828;2023-02-20T06:42:46;4.90;99.90
20839;DHT22;10580;51.092;6.828;2023-02-20T06:45:11;4.90;99.90
20839;DHT22;10580;51.092;6.828;2023-02-20T06:47:37;4.90;99.90
20839;DHT22;10580;51.092;6.828;2023-02-20T06:50:03;4.80;99.90
20839;DHT22;10580;51.092;6.828;2023-02-20T06:52:29;4.90;99.90
20839;DHT22;10580;51.092;6.828;2023-02-20T06:54:54;4.80;99.90
20839;DHT22;10580;51.092;6.828;2023-02-20T06:57:20;4.90;99.90
20839;DHT22;10580;51.092;6.828;2023-02-20T06:59:46;4.80;99.90
20839;DHT22;10580;51.092;6.828;2023-02-20T07:02:15;4.90;99.90
20839;DHT22;10580;51.092;6.828;2023-02-20T07:04:41;4.90;99.90
20839;DHT22;10580;51.092;6.828;2023-02-20T07:07:07;5.00;99.90
20839;DHT22;10580;51.092;6.828;2023-02-20T07:09:32;5.10;99.90
20839;DHT22;10580;51.092;6.828;2023-02-20T07:11:58;5.10;99.90
20839;DHT22;10580;51.092;6.828;2023-02-20T07:14:24;5.10;99.90
20839;DHT22;10580;51.092;6.828;2023-02-20T07:16:50;5.20;99.90
20839;DHT22;10580;51.092;6.828;2023-02-20T07:19:15;5.30;99.90
20839;DHT22;10580;51.092;6.828;2023-02-20T07:21:41;5.40;99.90
20839;DHT22;10580;51.092;6.828;2023-02-20T07:24:07;5.40;99.90
20839;DHT22;10580;51.092;6.828;2023-02-20T07:26:32;5.50;99.90
20839;DHT22;10580;51.092;6.828;2023-02-20T07:28:58;5.60;99.90
20839;DHT22;10580;51.092;6.828;2023-02-20T07:31:27;5.60;99.90
20839;DHT22;10580;51.092;6.828;2023-02-20T07:33:52;5.70;99.90
20839;DHT22;10580;51.092;6.828;2023-02-20T07:36:18;5.70;99.90
20839;DHT22;10580;51.092;6.828;2023-02-20T07:38:52;5.70;99.90
20839;DHT22;10580;51.092;6.828;2023-02-20T07:41:18;5.80;99.90
20839;DHT22;10580;51.092;6.828;2023-02-20T07:43:44;5.80;99.90
20839;DHT22;10580;51.092;6.828;2023-02-20T07:46:10;5.80;99.90
20839;DHT22;10580;51.092;6.828;2023-02-20T07:48:35;5.80;99.90
20839;DHT22;10580;51.092;6.828;2023-02-20T07:51:01;5.90;99.90
20839;DHT22;10580;51.092;6.828;2023-02-20T07:53:27;5.90;99.90
20839;DHT22;10580;51.092;6.828;2023-02-20T07:55:52;5.90;99.90
20839;DHT22;10580;51.092;6.828;2023-02-20T07:58:18;5.90;99.90
20839;DHT22;10580;51.092;6.828;2023-02-20T08:00:43;6.00;99.90
20839;DHT22;10580;51.092;6.828;2023-02-20T08:03:09;6.00;99.90
20839;DHT22;10580;51.092;6.828;2023-02-20T08:05:34;6.00;99.90
20839;DHT22;10580;51.092;6.828;2023-02-20T08:08:00;6.10;99.90
20839;DHT22;10580;51.092;6.828;2023-02-20T08:10:27;6.10;99.90
20839;DHT22;10580;51.092;6.828;2023-02-20T08:12:53;6.20;99.90
20839;DHT22;10580;51.092;6.828;2023-02-20T08:15:20;6.20;99.90
20839;DHT22;10580;51.092;6.828;2023-02-20T08:17:46;6.20;99.90
20839;DHT22;10580;51.092;6.828;2023-02-20T08:20:12;6.20;99.90
20839;DHT22;10580;51.092;6.828;2023-02-20T08:22:37;6.30;99.90
20839;DHT22;10580;51.092;6.828;2023-02-20T08:25:03;6.40;99.90
20839;DHT22;10580;51.092;6.828;2023-02-20T08:27:30;6.40;99.90
20839;DHT22;10580;51.092;6.828;2023-02-20T08:29:57;6.50;99.90
20839;DHT22;10580;51.092;6.828;2023-02-20T08:32:22;6.50;99.90
20839;DHT22;10580;51.092;6.828;2023-02-20T08:34:48;6.40;99.90
20839;DHT22;10580;51.092;6.828;2023-02-20T08:37:13;6.50;99.90
20839;DHT22;10580;51.092;6.828;2023-02-20T08:39:39;6.40;99.90
20839;DHT22;10580;51.092;6.828;2023-02-20T08:42:05;6.40;99.90
20839;DHT22;10580;51.092;6.828;2023-02-20T08:44:31;6.50;99.90
20839;DHT22;10580;51.092;6.828;2023-02-20T08:46:56;6.60;99.90
20839;DHT22;10580;51.092;6.828;2023-02-20T08:49:22;6.70;99.90
20839;DHT22;10580;51.092;6.828;2023-02-20T08:51:52;6.70;99.90
20839;DHT22;10580;51.092;6.828;2023-02-20T08:54:18;6.70;99.90
20839;DHT22;10580;51.092;6.828;2023-02-20T08:56:43;6.70;99.90
20839;DHT22;10580;51.092;6.828;2023-02-20T08:59:09;6.80;99.90
20839;DHT22;10580;51.092;6.828;2023-02-20T09:01:35;6.80;99.90
20839;DHT22;10580;51.092;6.828;2023-02-20T09:04:01;6.90;99.90
20839;DHT22;10580;51.092;6.828;2023-02-20T09:06:27;6.90;99.90
20839;DHT22;10580;51.092;6.828;2023-02-20T09:08:54;7.10;99.90
20839;DHT22;10580;51.092;6.828;2023-02-20T09:11:19;7.10;99.90
20839;DHT22;10580;51.092;6.828;2023-02-20T09:13:47;7.00;99.90
20839;DHT22;10580;51.092;6.828;2023-02-20T09:16:15;7.00;99.90
20839;DHT22;10580;51.092;6.828;2023-02-20T09:18:41;6.90;99.90
20839;DHT22;10580;51.092;6.828;2023-02-20T09:21:09;6.90;99.90
20839;DHT22;10580;51.092;6.828;2023-02-20T09:23:35;7.00;99.90
20839;DHT22;10580;51.092;6.828;2023-02-20T09:26:08;7.00;99.90
20839;DHT22;10580;51.092;6.828;2023-02-20T09:28:34;7.10;99.90
20839;DHT22;10580;51.092;6.828;2023-02-20T09:31:00;7.10;99.90
20839;DHT22;10580;51.092;6.828;2023-02-20T09:33:29;7.10;99.90
20839;DHT22;10580;51.092;6.828;2023-02-20T09:35:57;7.20;99.90
20839;DHT22;10580;51.092;6.828;2023-02-20T09:38:23;7.20;99.90
20839;DHT22;10580;51.092;6.828;2023-02-20T09:40:57;7.20;99.90
20839;DHT22;10580;51.092;6.828;2023-02-20T09:46:19;7.30;99.90
20839;DHT22;10580;51.092;6.828;2023-02-20T09:49:13;7.30;99.90
20839;DHT22;10580;51.092;6.828;2023-02-20T09:51:43;7.30;99.90
20839;DHT22;10580;51.092;6.828;2023-02-20T09:54:29;7.30;99.90
20839;DHT22;10580;51.092;6.828;2023-02-20T09:57:04;7.30;99.90
20839;DHT22;10580;51.092;6.828;2023-02-20T09:59:43;7.30;99.90
20839;DHT22;10580;51.092;6.828;2023-02-20T10:02:19;7.40;99.90
20839;DHT22;10580;51.092;6.828;2023-02-20T10:04:51;7.40;99.90
20839;DHT22;10580;51.092;6.828;2023-02-20T10:07:33;7.40;99.90
20839;DHT22;10580;51.092;6.828;2023-02-20T10:10:23;7.40;99.90
20839;DHT22;10580;51.092;6.828;2023-02-20T10:15:35;7.40;99.90
20839;DHT22;10580;51.092;6.828;2023-02-20T10:18:26;7.40;99.90
20839;DHT22;10580;51.092;6.828;2023-02-20T10:21:16;7.40;99.90
20839;DHT22;10580;51.092;6.828;2023-02-20T10:24:15;7.50;99.90
20839;DHT22;10580;51.092;6.828;2023-02-20T10:26:46;7.60;99.90
20839;DHT22;10580;51.092;6.828;2023-02-20T10:29:25;7.60;99.90
20839;DHT22;10580;51.092;6.828;2023-02-20T10:32:03;7.70;99.90
20839;DHT22;10580;51.092;6.828;2023-02-20T10:34:42;7.80;99.90
20839;DHT22;10580;51.092;6.828;2023-02-20T10:37:19;7.80;99.90
20839;DHT22;10580;51.092;6.828;2023-02-20T10:39:53;7.90;99.90
20839;DHT22;10580;51.092;6.828;2023-02-20T10:48:08;7.90;99.90
20839;DHT22;10580;51.092;6.828;2023-02-20T10:53:44;7.90;99.90
20839;DHT22;10580;51.092;6.828;2023-02-20T10:59:37;7.90;99.90
20839;DHT22;10580;51.092;6.828;2023-02-20T11:02:17;7.90;99.90
20839;DHT22;10580;51.092;6.828;2023-02-20T11:04:49;8.00;99.90
20839;DHT22;10580;51.092;6.828;2023-02-20T11:07:20;8.00;99.90
20839;DHT22;10580;51.092;6.828;2023-02-20T11:10:04;8.00;99.90
20839;DHT22;10580;51.092;6.828;2023-02-20T11:12:43;7.90;99.90
20839;DHT22;10580;51.092;6.828;2023-02-20T11:15:19;8.00;99.90
20839;DHT22;10580;51.092;6.828;2023-02-20T11:17:48;8.00;99.90
20839;DHT22;10580;51.092;6.828;2023-02-20T11:23:03;8.10;99.90
20839;DHT22;10580;51.092;6.828;2023-02-20T11:25:34;8.10;99.90
20839;DHT22;10580;51.092;6.828;2023-02-20T11:28:23;8.10;99.90
20839;DHT22;10580;51.092;6.828;2023-02-20T11:31:02;8.10;99.90
20839;DHT22;10580;51.092;6.828;2023-02-20T11:33:30;8.10;99.90
20839;DHT22;10580;51.092;6.828;2023-02-20T11:36:14;8.20;99.90
20839;DHT22;10580;51.092;6.828;2023-02-20T11:38:41;8.30;99.90
20839;DHT22;10580;51.092;6.828;2023-02-20T11:41:30;8.40;99.90
20839;DHT22;10580;51.092;6.828;2023-02-20T11:44:06;8.30;99.90
20839;DHT22;10580;51.092;6.828;2023-02-20T11:46:40;8.40;99.90
20839;DHT22;10580;51.092;6.828;2023-02-20T11:49:11;8.40;99.90
20839;DHT22;10580;51.092;6.828;2023-02-20T11:51:44;8.50;99.90
20839;DHT22;10580;51.092;6.828;2023-02-20T11:54:22;8.60;99.90
20839;DHT22;10580;51.092;6.828;2023-02-20T12:07:57;8.50;99.90
20839;DHT22;10580;51.092;6.828;2023-02-20T12:10:44;8.50;99.90
20839;DHT22;10580;51.092;6.828;2023-02-20T12:13:14;8.50;99.90
20839;DHT22;10580;51.092;6.828;2023-02-20T12:15:41;8.60;99.90
20839;DHT22;10580;51.092;6.828;2023-02-20T12:20:43;8.50;99.90
20839;DHT22;10580;51.092;6.828;2023-02-20T12:23:26;8.50;99.90
20839;DHT22;10580;51.092;6.828;2023-02-20T12:42:27;8.60;99.90
20839;DHT22;10580;51.092;6.828;2023-02-20T12:45:18;8.60;99.90
20839;DHT22;10580;51.092;6.828;2023-02-20T12:48:24;8.80;99.90
20839;DHT22;10580;51.092;6.828;2023-02-20T12:59:27;8.70;99.90
20839;DHT22;10580;51.092;6.828;2023-02-20T13:02:05;8.60;99.90
20839;DHT22;10580;51.092;6.828;2023-02-20T13:04:56;8.60;99.90
20839;DHT22;10580;51.092;6.828;2023-02-20T13:07:46;8.50;99.90
20839;DHT22;10580;51.092;6.828;2023-02-20T13:10:55;8.50;99.90
20839;DHT22;10580;51.092;6.828;2023-02-20T13:19:42;8.30;99.90
20839;DHT22;10580;51.092;6.828;2023-02-20T13:22:12;8.30;99.90
20839;DHT22;10580;51.092;6.828;2023-02-20T13:24:49;8.30;99.90
20839;DHT22;10580;51.092;6.828;2023-02-20T13:27:33;8.30;99.90
20839;DHT22;10580;51.092;6.828;2023-02-20T13:30:11;8.40;99.90
20839;DHT22;10580;51.092;6.828;2023-02-20T13:32:44;8.40;99.90
20839;DHT22;10580;51.092;6.828;2023-02-20T13:38:12;8.40;99.90
20839;DHT22;10580;51.092;6.828;2023-02-20T13:40:57;8.40;99.90
20839;DHT22;10580;51.092;6.828;2023-02-20T13:48:51;8.50;99.90
20839;DHT22;10580;51.092;6.828;2023-02-20T14:01:15;8.60;99.90
20839;DHT22;10580;51.092;6.828;2023-02-20T14:03:40;8.60;99.90
20839;DHT22;10580;51.092;6.828;2023-02-20T14:06:12;8.60;99.90
20839;DHT22;10580;51.092;6.828;2023-02-20T14:08:45;8.70;99.90
20839;DHT22;10580;51.092;6.828;2023-02-20T14:13:51;8.80;99.90
20839;DHT22;10580;51.092;6.828;2023-02-20T14:16:28;8.90;99.90
20839;DHT22;10580;51.092;6.828;2023-02-20T14:19:24;8.80;99.90
20839;DHT22;10580;51.092;6.828;2023-02-20T14:21:51;8.90;99.90
20839;DHT22;10580;51.092;6.828;2023-02-20T14:24:26;8.70;99.90
20839;DHT22;10580;51.092;6.828;2023-02-20T14:26:52;8.80;99.90
20839;DHT22;10580;51.092;6.828;2023-02-20T14:29:37;8.80;99.90
20839;DHT22;10580;51.092;6.828;2023-02-20T14:32:13;8.70;99.90
20839;DHT22;10580;51.092;6.828;2023-02-20T14:34:59;8.70;99.90
20839;DHT22;10580;51.092;6.828;2023-02-20T14:37:55;8.70;99.90
20839;DHT22;10580;51.092;6.828;2023-02-20T14:40:42;8.70;99.90
20839;DHT22;10580;51.092;6.828;2023-02-20T14:43:27;8.70;99.90
20839;DHT22;10580;51.092;6.828;2023-02-20T14:49:03;8.70;99.90
20839;DHT22;10580;51.092;6.828;2023-02-20T14:51:29;8.60;99.90
20839;DHT22;10580;51.092;6.828;2023-02-20T14:54:18;8.60;99.90
20839;DHT22;10580;51.092;6.828;2023-02-20T14:56:48;8.60;99.90
20839;DHT22;10580;51.092;6.828;2023-02-20T14:59:33;8.70;99.90
20839;DHT22;10580;51.092;6.828;2023-02-20T15:02:26;8.70;99.90
20839;DHT22;10580;51.092;6.828;2023-02-20T15:07:54;8.70;99.90
20839;DHT22;10580;51.092;6.828;2023-02-20T15:10:51;8.70;99.90
20839;DHT22;10580;51.092;6.828;2023-02-20T15:13:25;8.70;99.90
20839;DHT22;10580;51.092;6.828;2023-02-20T15:16:14;8.60;99.90
20839;DHT22;10580;51.092;6.828;2023-02-20T15:18:43;8.70;99.90
20839;DHT22;10580;51.092;6.828;2023-02-20T15:24:28;8.60;99.90
20839;DHT22;10580;51.092;6.828;2023-02-20T15:27:15;8.60;99.90
20839;DHT22;10580;51.092;6.828;2023-02-20T15:30:06;8.60;99.90
20839;DHT22;10580;51.092;6.828;2023-02-20T15:32:34;8.60;99.90
20839;DHT22;10580;51.092;6.828;2023-02-20T15:35:11;8.60;99.90
20839;DHT22;10580;51.092;6.828;2023-02-20T15:37:43;8.60;99.90
20839;DHT22;10580;51.092;6.828;2023-02-20T15:40:25;8.60;99.90
20839;DHT22;10580;51.092;6.828;2023-02-20T15:42:57;8.60;99.90
20839;DHT22;10580;51.092;6.828;2023-02-20T15:45:27;8.60;99.90
20839;DHT22;10580;51.092;6.828;2023-02-20T15:47:53;8.60;99.90
20839;DHT22;10580;51.092;6.828;2023-02-20T15:50:22;8.60;99.90
20839;DHT22;10580;51.092;6.828;2023-02-20T15:52:48;8.60;99.90
20839;DHT22;10580;51.092;6.828;2023-02-20T15:55:20;8.60;99.90
20839;DHT22;10580;51.092;6.828;2023-02-20T15:57:47;8.60;99.90
20839;DHT22;10580;51.092;6.828;2023-02-20T16:02:44;8.50;99.90
20839;DHT22;10580;51.092;6.828;2023-02-20T16:05:10;8.50;99.90
20839;DHT22;10580;51.092;6.828;2023-02-20T16:07:35;8.50;99.90
20839;DHT22;10580;51.092;6.828;2023-02-20T16:10:01;8.50;99.90
20839;DHT22;10580;51.092;6.828;2023-02-20T16:12:27;8.50;99.90
20839;DHT22;10580;51.092;6.828;2023-02-20T16:14:56;8.50;99.90
20839;DHT22;10580;51.092;6.828;2023-02-20T16:17:27;8.50;99.90
20839;DHT22;10580;51.092;6.828;2023-02-20T16:19:56;8.50;99.90
20839;DHT22;10580;51.092;6.828;2023-02-20T16:22:22;8.50;99.90
20839;DHT22;10580;51.092;6.828;2023-02-20T16:24:51;8.40;99.90
20839;DHT22;10580;51.092;6.828;2023-02-20T16:27:25;8.40;99.90
20839;DHT22;10580;51.092;6.828;2023-02-20T16:29:56;8.40;99.90
20839;DHT22;10580;51.092;6.828;2023-02-20T16:34:48;8.40;99.90
20839;DHT22;10580;51.092;6.828;2023-02-20T16:37:14;8.40;99.90
20839;DHT22;10580;51.092;6.828;2023-02-20T16:39:40;8.40;99.90
20839;DHT22;10580;51.092;6.828;2023-02-20T16:44:45;8.40;99.90
20839;DHT22;10580;51.092;6.828;2023-02-20T16:47:13;8.40;99.90
20839;DHT22;10580;51.092;6.828;2023-02-20T16:49:39;8.40;99.90
20839;DHT22;10580;51.092;6.828;2023-02-20T16:54:52;8.40;99.90
20839;DHT22;10580;51.092;6.828;2023-02-20T16:57:19;8.40;99.90
20839;DHT22;10580;51.092;6.828;2023-02-20T16:59:55;8.40;99.90
20839;DHT22;10580;51.092;6.828;2023-02-20T17:02:25;8.40;99.90
20839;DHT22;10580;51.092;6.828;2023-02-20T17:04:51;8.40;99.90
20839;DHT22;10580;51.092;6.828;2023-02-20T17:07:17;8.40;99.90
20839;DHT22;10580;51.092;6.828;2023-02-20T17:09:43;8.40;99.90
20839;DHT22;10580;51.092;6.828;2023-02-20T17:12:10;8.40;99.90
20839;DHT22;10580;51.092;6.828;2023-02-20T17:14:35;8.40;99.90
20839;DHT22;10580;51.092;6.828;2023-02-20T17:17:01;8.40;99.90
20839;DHT22;10580;51.092;6.828;2023-02-20T17:19:27;8.40;99.90
20839;DHT22;10580;51.092;6.828;2023-02-20T17:21:53;8.40;99.90
20839;DHT22;10580;51.092;6.828;2023-02-20T17:24:19;8.40;99.90
20839;DHT22;10580;51.092;6.828;2023-02-20T17:26:50;8.40;99.90
20839;DHT22;10580;51.092;6.828;2023-02-20T17:29:16;8.40;99.90
20839;DHT22;10580;51.092;6.828;2023-02-20T17:31:42;8.40;99.90
20839;DHT22;10580;51.092;6.828;2023-02-20T17:37:30;8.40;99.90
20839;DHT22;10580;51.092;6.828;2023-02-20T17:39:57;8.40;99.90
20839;DHT22;10580;51.092;6.828;2023-02-20T17:42:23;8.40;99.90
20839;DHT22;10580;51.092;6.828;2023-02-20T17:44:49;8.40;99.90
20839;DHT22;10580;51.092;6.828;2023-02-20T17:47:15;8.40;99.90
20839;DHT22;10580;51.092;6.828;2023-02-20T17:49:41;8.50;99.90
20839;DHT22;10580;51.092;6.828;2023-02-20T17:52:08;8.50;99.90
20839;DHT22;10580;51.092;6.828;2023-02-20T17:54:34;8.50;99.90
20839;DHT22;10580;51.092;6.828;2023-02-20T17:57:00;8.50;99.90
20839;DHT22;10580;51.092;6.828;2023-02-20T17:59:26;8.50;99.90
20839;DHT22;10580;51.092;6.828;2023-02-20T18:01:53;8.50;99.90
20839;DHT22;10580;51.092;6.828;2023-02-20T18:04:19;8.40;99.90
20839;DHT22;10580;51.092;6.828;2023-02-20T18:06:45;8.50;99.90
20839;DHT22;10580;51.092;6.828;2023-02-20T18:09:14;8.50;99.90
20839;DHT22;10580;51.092;6.828;2023-02-20T18:11:41;8.50;99.90
20839;DHT22;10580;51.092;6.828;2023-02-20T18:14:08;8.50;99.90
20839;DHT22;10580;51.092;6.828;2023-02-20T18:16:34;8.50;99.90
20839;DHT22;10580;51.092;6.828;2023-02-20T18:18:59;8.50;99.90
20839;DHT22;10580;51.092;6.828;2023-02-20T18:21:28;8.50;99.90
20839;DHT22;10580;51.092;6.828;2023-02-20T18:23:55;8.50;99.90